createdAt,value
2023-04-17T00:00:17.546Z,11.60
2023-04-17T00:02:46.695Z,11.70
2023-04-17T00:05:16.895Z,12.20
2023-04-17T00:07:46.601Z,10.50
2023-04-17T00:10:14.906Z,10.90
2023-04-17T00:12:43.219Z,11.20
2023-04-17T00:15:11.429Z,11.50
2023-04-17T00:17:40.011Z,11.30
2023-04-17T00:20:11.420Z,11.60
2023-04-17T00:22:39.847Z,12.10
2023-04-17T00:25:10.523Z,11.70
2023-04-17T00:27:38.810Z,11.50
2023-04-17T00:30:07.851Z,9.90
2023-04-17T00:32:38.030Z,10.10
2023-04-17T00:35:07.117Z,9.90
2023-04-17T00:37:36.283Z,10.80
2023-04-17T00:40:05.056Z,11.30
2023-04-17T00:42:33.482Z,11.00
2023-04-17T00:45:01.711Z,10.20
2023-04-17T00:47:30.896Z,9.50
2023-04-17T00:49:59.177Z,10.50
2023-04-17T00:52:29.933Z,10.00
2023-04-17T00:54:58.307Z,10.80
2023-04-17T00:57:26.599Z,10.40
2023-04-17T00:59:56.412Z,10.50
2023-04-17T01:02:25.058Z,9.50
2023-04-17T01:04:53.506Z,10.20
2023-04-17T01:07:21.608Z,9.30
2023-04-17T01:09:49.724Z,9.50
2023-04-17T01:12:22.353Z,10.00
2023-04-17T01:14:51.631Z,10.00
2023-04-17T01:17:20.619Z,10.60
2023-04-17T01:19:49.475Z,9.70
2023-04-17T01:22:17.735Z,9.20
2023-04-17T01:24:46.069Z,8.20
2023-04-17T01:27:15.000Z,8.70
2023-04-17T01:29:44.873Z,7.90
2023-04-17T01:32:13.088Z,9.10
2023-04-17T01:34:41.521Z,8.90
2023-04-17T01:37:10.009Z,9.40
2023-04-17T01:39:38.393Z,9.30
2023-04-17T01:42:07.180Z,9.80
2023-04-17T01:44:37.655Z,9.70
2023-04-17T01:47:05.979Z,9.10
2023-04-17T01:49:34.667Z,9.60
2023-04-17T01:52:03.245Z,9.80
2023-04-17T01:54:31.643Z,12.00
2023-04-17T01:57:00.131Z,9.30
2023-04-17T01:59:28.492Z,9.10
2023-04-17T02:01:57.426Z,10.00
2023-04-17T02:04:26.205Z,10.30
2023-04-17T02:06:54.651Z,9.50
2023-04-17T02:09:22.870Z,9.40
2023-04-17T02:11:51.142Z,9.40
2023-04-17T02:14:20.922Z,9.20
2023-04-17T02:16:49.028Z,9.40
2023-04-17T02:19:17.172Z,9.60
2023-04-17T02:21:45.387Z,9.60
2023-04-17T02:24:13.528Z,9.70
2023-04-17T02:26:41.669Z,9.50
2023-04-17T02:29:10.061Z,8.20
2023-04-17T02:31:40.913Z,8.60
2023-04-17T02:34:09.197Z,9.30
2023-04-17T02:36:37.470Z,9.20
2023-04-17T02:39:05.989Z,9.20
2023-04-17T02:41:34.122Z,8.80
2023-04-17T02:44:03.122Z,10.80
2023-04-17T02:46:31.742Z,10.20
2023-04-17T02:48:59.811Z,9.10
2023-04-17T02:51:28.007Z,8.10
2023-04-17T02:53:56.109Z,8.60
2023-04-17T02:56:24.322Z,9.10
2023-04-17T02:58:52.473Z,8.50
2023-04-17T03:01:22.168Z,9.30
2023-04-17T03:03:52.466Z,9.10
2023-04-17T03:06:21.760Z,9.30
2023-04-17T03:08:50.066Z,9.50
2023-04-17T03:11:19.293Z,8.10
2023-04-17T03:13:47.406Z,8.50
2023-04-17T03:16:15.774Z,7.90
2023-04-17T03:18:45.127Z,8.00
2023-04-17T03:21:13.219Z,8.60
2023-04-17T03:23:41.594Z,8.60
2023-04-17T03:26:10.066Z,8.10
2023-04-17T03:28:38.471Z,8.30
2023-04-17T03:31:06.724Z,7.60
2023-04-17T03:33:37.928Z,7.60
2023-04-17T03:36:06.809Z,7.20
2023-04-17T03:38:36.142Z,6.90
2023-04-17T03:41:04.942Z,7.50
2023-04-17T03:43:33.024Z,7.40
2023-04-17T03:46:01.855Z,6.40
2023-04-17T03:48:30.704Z,6.90
2023-04-17T03:50:58.993Z,7.30
2023-04-17T03:53:28.006Z,7.30
2023-04-17T03:55:56.559Z,6.80
2023-04-17T03:58:28.636Z,5.80
2023-04-17T04:00:59.036Z,6.90
2023-04-17T04:03:30.152Z,7.00
2023-04-17T04:05:58.969Z,6.90
2023-04-17T04:08:27.086Z,6.80
2023-04-17T04:10:55.450Z,6.40
2023-04-17T04:13:29.517Z,6.40
2023-04-17T04:15:59.318Z,6.70
2023-04-17T04:18:29.019Z,6.90
2023-04-17T04:20:57.609Z,6.10
2023-04-17T04:23:30.709Z,6.00
2023-04-17T04:26:01.873Z,6.80
2023-04-17T04:28:38.387Z,5.90
2023-04-17T04:31:09.868Z,7.10
2023-04-17T04:33:40.424Z,6.10
2023-04-17T04:36:08.609Z,6.90
2023-04-17T04:38:37.893Z,6.70
2023-04-17T04:41:12.089Z,7.20
2023-04-17T04:43:40.372Z,6.20
2023-04-17T04:46:10.793Z,6.50
2023-04-17T04:48:42.996Z,6.60
2023-04-17T04:51:11.282Z,6.50
2023-04-17T04:53:39.786Z,5.30
2023-04-17T04:56:08.246Z,5.60
2023-04-17T04:58:38.649Z,6.00
2023-04-17T05:01:07.780Z,6.30
2023-04-17T05:03:40.904Z,6.70
2023-04-17T05:06:11.230Z,5.40
2023-04-17T05:08:42.240Z,5.80
2023-04-17T05:11:12.158Z,6.00
2023-04-17T05:13:40.566Z,5.20
2023-04-17T05:16:13.536Z,4.80
2023-04-17T05:18:41.619Z,5.00
2023-04-17T05:21:10.873Z,4.80
2023-04-17T05:23:39.347Z,4.40
2023-04-17T05:26:07.614Z,5.40
2023-04-17T05:28:35.785Z,5.00
2023-04-17T05:31:04.626Z,4.70
2023-04-17T05:33:36.752Z,4.20
2023-04-17T05:36:07.576Z,5.40
2023-04-17T05:38:37.789Z,5.00
2023-04-17T05:41:08.553Z,4.80
2023-04-17T05:43:38.413Z,4.40
2023-04-17T05:46:07.503Z,4.90
2023-04-17T05:48:36.166Z,4.60
2023-04-17T05:51:04.997Z,3.90
2023-04-17T05:53:33.876Z,4.30
2023-04-17T05:56:03.618Z,3.70
2023-04-17T05:58:36.244Z,4.10
2023-04-17T06:01:06.467Z,4.20
2023-04-17T06:03:35.301Z,4.40
2023-04-17T06:06:08.831Z,4.00
2023-04-17T06:08:37.663Z,4.00
2023-04-17T06:11:06.324Z,3.70
2023-04-17T06:13:35.091Z,4.40
2023-04-17T06:16:03.143Z,4.00
2023-04-17T06:18:31.263Z,4.40
2023-04-17T06:20:59.292Z,4.90
2023-04-17T06:23:29.130Z,4.50
2023-04-17T06:25:57.761Z,4.40
2023-04-17T06:28:26.092Z,4.80
2023-04-17T06:30:55.181Z,4.60
2023-04-17T06:33:25.376Z,4.60
2023-04-17T06:35:54.768Z,4.40
2023-04-17T06:38:38.494Z,4.50
2023-04-17T06:41:06.756Z,5.40
2023-04-17T06:43:36.038Z,4.40
2023-04-17T06:46:13.040Z,3.80
2023-04-17T06:48:41.323Z,4.30
2023-04-17T06:51:09.687Z,4.80
2023-04-17T06:53:38.021Z,4.90
2023-04-17T06:56:06.707Z,4.40
2023-04-17T06:58:42.334Z,4.70
2023-04-17T07:03:43.106Z,4.60
2023-04-17T07:06:11.594Z,5.10
2023-04-17T07:08:39.997Z,5.20
2023-04-17T07:11:08.424Z,5.60
2023-04-17T07:13:36.561Z,4.50
2023-04-17T07:16:06.386Z,4.90
2023-04-17T07:18:35.059Z,4.90
2023-04-17T07:21:03.319Z,5.40
2023-04-17T07:23:31.486Z,5.30
2023-04-17T07:25:59.999Z,5.00
2023-04-17T07:28:28.052Z,5.70
2023-04-17T07:30:58.228Z,5.40
2023-04-17T07:33:26.671Z,5.80
2023-04-17T07:35:54.843Z,5.30
2023-04-17T07:38:24.098Z,4.80
2023-04-17T07:40:52.165Z,5.30
2023-04-17T07:43:20.271Z,5.50
2023-04-17T07:47:44.740Z,4.90
2023-04-17T07:50:12.968Z,5.50
2023-04-17T07:52:41.162Z,5.00
2023-04-17T07:55:09.701Z,5.10
2023-04-17T07:57:42.759Z,5.00
2023-04-17T08:00:13.767Z,4.30
2023-04-17T08:02:43.457Z,4.50
2023-04-17T08:05:11.745Z,4.70
2023-04-17T08:07:41.240Z,4.10
2023-04-17T08:10:09.742Z,3.80
2023-04-17T08:12:37.964Z,4.10
2023-04-17T08:15:06.577Z,3.50
2023-04-17T08:17:35.581Z,3.40
2023-04-17T08:20:11.980Z,3.70
2023-04-17T08:22:41.187Z,3.40
2023-04-17T08:25:09.856Z,3.70
2023-04-17T08:27:41.777Z,3.10
2023-04-17T08:30:13.736Z,3.60
2023-04-17T08:32:45.579Z,3.30
2023-04-17T08:35:14.350Z,3.40
2023-04-17T08:37:42.985Z,3.30
2023-04-17T08:40:12.569Z,2.80
2023-04-17T08:42:44.544Z,3.00
2023-04-17T08:45:13.360Z,3.10
2023-04-17T08:47:42.359Z,3.00
2023-04-17T08:50:15.122Z,2.60
2023-04-17T08:52:52.891Z,3.00
2023-04-17T08:55:22.668Z,3.20
2023-04-17T08:57:57.140Z,2.90
2023-04-17T09:00:26.645Z,3.40
2023-04-17T09:02:56.158Z,3.20
2023-04-17T09:05:24.926Z,3.10
2023-04-17T09:08:12.588Z,2.90
2023-04-17T09:10:45.400Z,3.00
2023-04-17T09:13:14.866Z,3.00
2023-04-17T09:15:44.122Z,3.00
2023-04-17T09:18:23.042Z,3.30
2023-04-17T09:20:51.485Z,3.10
2023-04-17T09:23:20.007Z,3.10
2023-04-17T09:25:50.564Z,2.90
2023-04-17T09:28:19.730Z,2.40
2023-04-17T09:30:47.877Z,2.60
2023-04-17T09:33:17.057Z,2.30
2023-04-17T09:35:45.143Z,3.10
2023-04-17T09:38:13.150Z,2.90
2023-04-17T09:40:42.222Z,3.20
2023-04-17T09:43:10.673Z,2.70
2023-04-17T09:45:41.712Z,2.70
2023-04-17T09:48:13.444Z,2.60
2023-04-17T09:50:41.790Z,2.90
2023-04-17T09:53:10.035Z,3.00
2023-04-17T09:55:38.956Z,2.80
2023-04-17T09:58:08.029Z,3.00
2023-04-17T10:00:37.057Z,3.40
2023-04-17T10:03:05.633Z,2.70
2023-04-17T10:05:34.688Z,3.10
2023-04-17T10:08:02.954Z,3.30
2023-04-17T10:10:33.861Z,3.70
2023-04-17T10:13:03.627Z,2.90
2023-04-17T10:15:31.773Z,3.30
2023-04-17T10:18:19.892Z,2.80
2023-04-17T10:20:49.520Z,3.50
2023-04-17T10:23:28.921Z,3.60
2023-04-17T10:26:25.166Z,3.10
2023-04-17T10:28:54.096Z,3.60
2023-04-17T10:31:23.716Z,3.00
2023-04-17T10:33:53.363Z,3.30
2023-04-17T10:36:51.099Z,2.90
2023-04-17T10:39:19.277Z,3.20
2023-04-17T10:42:02.822Z,3.30
2023-04-17T10:44:40.512Z,3.50
2023-04-17T10:49:51.100Z,3.10
2023-04-17T10:52:34.852Z,3.30
2023-04-17T10:55:09.954Z,3.00
2023-04-17T10:58:02.237Z,2.80
2023-04-17T11:00:37.993Z,2.50
2023-04-17T11:03:06.746Z,2.20
2023-04-17T11:05:36.072Z,2.10
2023-04-17T11:08:04.917Z,1.60
2023-04-17T11:10:35.747Z,1.70
2023-04-17T11:13:03.863Z,1.50
2023-04-17T11:15:34.381Z,1.60
2023-04-17T11:18:03.461Z,2.00
2023-04-17T11:20:33.021Z,1.50
2023-04-17T11:23:02.228Z,1.40
2023-04-17T11:25:31.795Z,1.20
2023-04-17T11:28:04.041Z,1.50
2023-04-17T11:30:37.514Z,1.60
2023-04-17T11:33:07.763Z,1.30
2023-04-17T11:35:38.360Z,1.30
2023-04-17T11:38:14.551Z,1.70
2023-04-17T11:40:47.196Z,1.70
2023-04-17T11:43:15.412Z,1.60
2023-04-17T11:45:44.928Z,1.00
2023-04-17T11:48:14.080Z,1.30
2023-04-17T11:50:43.575Z,1.10
2023-04-17T11:53:17.865Z,1.40
2023-04-17T11:55:46.053Z,1.50
2023-04-17T11:58:14.410Z,1.40
2023-04-17T12:00:43.174Z,1.10
2023-04-17T12:03:31.211Z,1.30
2023-04-17T12:06:00.833Z,1.50
2023-04-17T12:08:29.838Z,1.20
2023-04-17T12:10:57.968Z,1.40
2023-04-17T12:13:26.397Z,1.60
2023-04-17T12:15:54.681Z,1.50
2023-04-17T12:18:22.687Z,1.10
2023-04-17T12:20:51.159Z,1.70
2023-04-17T12:23:19.345Z,1.60
2023-04-17T12:25:47.367Z,1.30
2023-04-17T12:28:15.902Z,1.30
2023-04-17T12:30:44.161Z,1.50
2023-04-17T12:33:12.148Z,1.20
2023-04-17T12:35:40.459Z,1.30
2023-04-17T12:38:09.158Z,1.70
2023-04-17T12:40:39.383Z,1.80
2023-04-17T12:43:08.490Z,1.30
2023-04-17T12:45:37.262Z,1.30
2023-04-17T12:48:06.848Z,1.10
2023-04-17T12:50:42.532Z,1.30
2023-04-17T12:53:11.809Z,1.10
2023-04-17T12:55:44.321Z,1.20
2023-04-17T12:58:13.209Z,1.20
2023-04-17T13:00:43.622Z,1.50
2023-04-17T13:03:12.617Z,1.50
2023-04-17T13:05:41.136Z,1.90
2023-04-17T13:08:15.211Z,1.20
2023-04-17T13:10:43.307Z,1.70
2023-04-17T13:13:12.028Z,1.50
2023-04-17T13:15:40.103Z,1.50
2023-04-17T13:18:10.573Z,1.20
2023-04-17T13:20:39.003Z,1.60
2023-04-17T13:23:07.311Z,1.30
2023-04-17T13:25:35.618Z,1.40
2023-04-17T13:28:03.967Z,1.20
2023-04-17T13:30:32.660Z,1.20
2023-04-17T13:33:00.778Z,1.50
2023-04-17T13:35:29.052Z,1.10
2023-04-17T13:38:01.075Z,1.10
2023-04-17T13:40:30.169Z,1.30
2023-04-17T13:42:58.601Z,1.50
2023-04-17T13:45:26.652Z,1.40
2023-04-17T13:47:54.832Z,1.20
2023-04-17T13:50:23.004Z,1.10
2023-04-17T13:52:51.283Z,1.30
2023-04-17T13:55:19.551Z,0.70
2023-04-17T13:57:48.082Z,0.90
2023-04-17T14:00:18.407Z,0.90
2023-04-17T14:02:46.598Z,1.40
2023-04-17T14:05:14.893Z,1.30
2023-04-17T14:07:44.236Z,1.20
2023-04-17T14:10:12.449Z,1.40
2023-04-17T14:12:41.099Z,1.80
2023-04-17T14:15:10.029Z,1.70
2023-04-17T14:17:42.920Z,1.40
2023-04-17T14:20:12.155Z,1.20
2023-04-17T14:22:40.526Z,1.20
2023-04-17T14:25:08.929Z,1.20
2023-04-17T14:27:37.772Z,1.10
2023-04-17T14:30:06.989Z,1.30
2023-04-17T14:32:35.509Z,1.20
2023-04-17T14:35:03.835Z,1.10
2023-04-17T14:37:32.208Z,1.20
2023-04-17T14:40:00.409Z,1.20
2023-04-17T14:42:28.690Z,1.60
2023-04-17T14:44:56.772Z,1.00
2023-04-17T14:47:25.313Z,1.20
2023-04-17T14:49:53.466Z,1.30
2023-04-17T14:52:21.469Z,1.50
2023-04-17T14:54:49.461Z,1.40
2023-04-17T14:57:17.520Z,1.50
2023-04-17T14:59:45.599Z,1.50
2023-04-17T15:02:13.693Z,1.70
2023-04-17T15:04:42.482Z,1.60
2023-04-17T15:07:10.620Z,1.50
2023-04-17T15:09:38.596Z,1.20
2023-04-17T15:12:08.094Z,1.80
2023-04-17T15:14:36.086Z,1.50
2023-04-17T15:17:06.923Z,1.30
2023-04-17T15:19:35.269Z,1.00
2023-04-17T15:22:03.321Z,1.40
2023-04-17T15:24:32.095Z,1.30
2023-04-17T15:27:00.934Z,1.10
2023-04-17T15:29:29.211Z,1.20
2023-04-17T15:31:57.435Z,1.40
2023-04-17T15:34:25.674Z,1.60
2023-04-17T15:36:53.732Z,1.20
2023-04-17T15:39:21.827Z,1.30
2023-04-17T15:41:50.743Z,1.30
2023-04-17T15:44:18.832Z,1.60
2023-04-17T15:46:46.842Z,1.40
2023-04-17T15:49:15.050Z,1.20
2023-04-17T15:51:43.086Z,1.40
2023-04-17T15:54:12.176Z,1.20
2023-04-17T15:56:40.747Z,1.20
2023-04-17T15:59:08.836Z,1.40
2023-04-17T16:01:37.355Z,1.30
2023-04-17T16:04:06.025Z,1.40
2023-04-17T16:06:35.322Z,1.10
2023-04-17T16:09:04.048Z,1.30
2023-04-17T16:11:32.368Z,1.60
2023-04-17T16:14:00.423Z,1.50
2023-04-17T16:16:29.505Z,1.30
2023-04-17T16:18:57.994Z,1.30
2023-04-17T16:21:26.907Z,1.30
2023-04-17T16:23:55.502Z,1.60
2023-04-17T16:26:23.568Z,1.30
2023-04-17T16:28:51.577Z,1.40
2023-04-17T16:31:21.715Z,1.30
2023-04-17T16:33:49.801Z,1.80
2023-04-17T16:36:17.853Z,1.20
2023-04-17T16:38:45.957Z,1.40
2023-04-17T16:41:14.165Z,1.60
2023-04-17T16:43:42.740Z,1.70
2023-04-17T16:46:22.138Z,1.70
2023-04-17T16:48:51.170Z,1.30
2023-04-17T16:51:23.799Z,1.60
2023-04-17T16:53:51.988Z,1.50
2023-04-17T16:56:20.229Z,2.00
2023-04-17T16:58:48.289Z,2.00
2023-04-17T17:01:16.355Z,2.00
2023-04-17T17:03:45.253Z,2.00
2023-04-17T17:06:13.526Z,1.80
2023-04-17T17:08:46.655Z,2.30
2023-04-17T17:11:15.117Z,2.00
2023-04-17T17:13:49.878Z,2.50
2023-04-17T17:16:18.979Z,2.00
2023-04-17T17:18:47.907Z,2.10
2023-04-17T17:21:16.215Z,2.90
2023-04-17T17:23:44.350Z,2.50
2023-04-17T17:26:12.514Z,2.80
2023-04-17T17:28:40.624Z,3.50
2023-04-17T17:31:08.688Z,3.50
2023-04-17T17:33:37.442Z,3.20
2023-04-17T17:36:06.335Z,3.40
2023-04-17T17:38:34.744Z,3.40
2023-04-17T17:41:04.363Z,3.30
2023-04-17T17:43:32.934Z,3.20
2023-04-17T17:46:01.350Z,3.70
2023-04-17T17:48:29.653Z,4.20
2023-04-17T17:50:57.942Z,4.50
2023-04-17T17:53:27.297Z,4.40
2023-04-17T17:55:55.806Z,4.10
2023-04-17T17:58:24.165Z,4.10
2023-04-17T18:00:52.477Z,3.50
2023-04-17T18:03:21.160Z,3.40
2023-04-17T18:05:49.937Z,3.10
2023-04-17T18:08:17.984Z,2.50
2023-04-17T18:10:46.213Z,2.70
2023-04-17T18:13:14.493Z,3.10
2023-04-17T18:15:42.604Z,2.80
2023-04-17T18:18:10.650Z,3.30
2023-04-17T18:20:39.482Z,3.40
2023-04-17T18:23:07.569Z,3.20
2023-04-17T18:25:35.918Z,3.40
2023-04-17T18:28:04.468Z,3.90
2023-04-17T18:30:32.800Z,3.70
2023-04-17T18:33:00.952Z,3.90
2023-04-17T18:35:29.492Z,4.40
2023-04-17T18:37:57.568Z,4.00
2023-04-17T18:40:25.858Z,4.10
2023-04-17T18:42:54.049Z,4.20
2023-04-17T18:45:22.058Z,3.60
2023-04-17T18:47:50.281Z,4.40
2023-04-17T18:50:18.454Z,3.60
2023-04-17T18:52:50.277Z,4.00
2023-04-17T18:55:19.061Z,4.40
2023-04-17T18:57:47.202Z,3.80
2023-04-17T19:00:15.517Z,3.60
2023-04-17T19:02:44.418Z,4.70
2023-04-17T19:05:12.688Z,3.90
2023-04-17T19:07:41.445Z,3.50
2023-04-17T19:10:09.956Z,3.90
2023-04-17T19:12:38.222Z,2.90
2023-04-17T19:15:07.004Z,3.10
2023-04-17T19:17:35.482Z,3.00
2023-04-17T19:20:04.354Z,3.50
2023-04-17T19:22:32.724Z,2.80
2023-04-17T19:25:00.726Z,3.20
2023-04-17T19:27:29.047Z,3.10
2023-04-17T19:29:57.085Z,3.00
2023-04-17T19:32:25.163Z,3.00
2023-04-17T19:34:53.427Z,2.90
2023-04-17T19:37:21.542Z,3.20
2023-04-17T19:39:49.729Z,2.70
2023-04-17T19:42:17.834Z,2.90
2023-04-17T19:44:46.386Z,2.30
2023-04-17T19:47:14.448Z,2.70
2023-04-17T19:49:42.503Z,2.50
2023-04-17T19:52:11.530Z,2.20
2023-04-17T19:54:39.629Z,2.10
2023-04-17T19:57:07.694Z,2.10
2023-04-17T19:59:35.899Z,2.60
2023-04-17T20:02:04.012Z,2.30
2023-04-17T20:15:54.909Z,2.20
2023-04-17T20:18:23.524Z,2.60
2023-04-17T20:20:51.703Z,2.60
2023-04-17T20:23:20.030Z,2.20
2023-04-17T20:25:48.290Z,2.90
2023-04-17T20:28:16.450Z,2.80
2023-04-17T20:30:44.617Z,2.20
2023-04-17T20:33:12.859Z,2.50
2023-04-17T20:35:42.313Z,2.50
2023-04-17T20:38:10.457Z,2.80
2023-04-17T20:40:38.668Z,2.70
2023-04-17T20:43:07.150Z,2.70
2023-04-17T20:45:35.370Z,2.50
2023-04-17T20:48:03.532Z,2.50
2023-04-17T20:50:31.894Z,2.10
2023-04-17T20:53:00.206Z,2.50
2023-04-17T20:55:28.329Z,2.70
2023-04-17T20:57:56.504Z,2.60
2023-04-17T21:00:24.758Z,2.30
2023-04-17T21:02:52.989Z,2.60
2023-04-17T21:05:21.551Z,2.40
2023-04-17T21:07:51.565Z,2.50
2023-04-17T21:10:20.449Z,2.20
2023-04-17T21:12:48.507Z,2.10
2023-04-17T21:15:16.578Z,2.00
2023-04-17T21:17:47.746Z,2.30
2023-04-17T21:20:16.096Z,2.30
2023-04-17T21:22:44.355Z,2.10
2023-04-17T21:25:12.650Z,2.30
2023-04-17T21:27:41.839Z,2.00
2023-04-17T21:30:11.061Z,2.30
2023-04-17T21:32:39.592Z,2.00
2023-04-17T21:35:08.276Z,1.90
2023-04-17T21:37:37.159Z,2.00
2023-04-17T21:40:05.777Z,2.10
2023-04-17T21:42:34.978Z,2.20
2023-04-17T21:45:03.146Z,2.00
2023-04-17T21:47:31.271Z,2.10
2023-04-17T21:50:00.411Z,2.40
2023-04-17T21:52:28.884Z,2.10
2023-04-17T21:55:03.017Z,2.60
2023-04-17T21:57:32.758Z,2.20
2023-04-17T22:00:01.917Z,2.30
2023-04-17T22:02:30.185Z,2.30
2023-04-17T22:04:58.303Z,2.40
2023-04-17T22:07:26.376Z,2.40
2023-04-17T22:09:54.406Z,2.50
2023-04-17T22:12:22.511Z,2.50
2023-04-17T22:14:50.541Z,2.40
2023-04-17T22:17:18.577Z,2.40
2023-04-17T22:19:46.663Z,2.40
2023-04-17T22:22:14.926Z,2.20
2023-04-17T22:24:43.187Z,1.90
2023-04-17T22:27:11.433Z,2.00
2023-04-17T22:29:39.653Z,2.20
2023-04-17T22:32:07.801Z,2.40
2023-04-17T22:34:35.978Z,2.10
2023-04-17T22:37:04.086Z,2.00
2023-04-17T22:39:33.462Z,2.10
2023-04-17T22:42:01.559Z,1.80
2023-04-17T22:44:29.725Z,2.30
2023-04-17T22:46:57.738Z,2.40
2023-04-17T22:49:25.858Z,2.80
2023-04-17T22:51:53.807Z,2.20
2023-04-17T22:54:23.312Z,2.10
2023-04-17T22:56:51.574Z,2.40
2023-04-17T22:59:19.723Z,2.20
2023-04-17T23:01:47.894Z,2.60
2023-04-17T23:04:16.218Z,2.20
2023-04-17T23:06:44.450Z,2.50
2023-04-17T23:09:12.808Z,2.70
2023-04-17T23:11:40.996Z,2.60
2023-04-17T23:14:11.313Z,2.40
2023-04-17T23:16:39.589Z,2.30
2023-04-17T23:19:07.660Z,2.80
2023-04-17T23:21:36.868Z,2.40
2023-04-17T23:24:04.897Z,2.30
2023-04-17T23:26:33.268Z,2.30
2023-04-17T23:29:01.280Z,2.40
2023-04-17T23:31:29.503Z,2.40
2023-04-17T23:33:57.510Z,2.30
2023-04-17T23:36:25.942Z,2.70
2023-04-17T23:38:54.061Z,2.60
2023-04-17T23:41:22.240Z,2.50
2023-04-17T23:43:51.421Z,2.70
2023-04-17T23:46:19.494Z,2.80
2023-04-17T23:48:47.704Z,2.20
2023-04-17T23:51:15.760Z,2.50
2023-04-17T23:53:43.995Z,2.70
2023-04-17T23:56:12.212Z,2.50
2023-04-17T23:58:40.378Z,2.80
